Time,TemperatureF,DewpointF,PressureIn,WindDirection,WindDirectionDegrees,WindSpeedMPH,WindSpeedGustMPH,Humidity,HourlyPrecipIn,Conditions,Clouds,dailyrainin,SoftwareType,DateUTC
2013-06-16 00:08:00,64.9,59.0,30.02,WSW,245,1.0,2.0,80,0.00,,,0.00,weatherlink.com 1.10,2013-06-16 04:08:00,
2013-06-16 00:23:00,64.5,59.0,30.02,West,267,0.0,2.0,81,0.00,,,0.00,weatherlink.com 1.10,2013-06-16 04:23:00,
2013-06-16 00:38:00,63.3,58.0,30.01,West,276,0.0,2.0,83,0.00,,,0.00,weatherlink.com 1.10,2013-06-16 04:38:00,
2013-06-16 00:54:00,62.5,58.0,30.01,WSW,253,0.0,3.0,85,0.00,,,0.00,weatherlink.com 1.10,2013-06-16 04:54:00,
2013-06-16 01:09:00,62.6,58.0,30.01,West,274,1.0,1.0,85,0.00,,,0.00,weatherlink.com 1.10,2013-06-16 05:09:00,
2013-06-16 01:24:00,62.4,58.0,30.00,WNW,285,0.0,1.0,86,0.00,,,0.00,weatherlink.com 1.10,2013-06-16 05:24:00,
2013-06-16 01:39:00,62.2,58.0,30.00,SE,131,4.0,5.0,86,0.00,,,0.00,weatherlink.com 1.10,2013-06-16 05:39:00,
2013-06-16 01:54:00,61.3,58.0,30.00,NE,44,0.0,1.0,88,0.00,,,0.00,weatherlink.com 1.10,2013-06-16 05:54:00,
2013-06-16 02:09:00,60.9,58.0,30.00,WNW,287,1.0,2.0,90,0.00,,,0.00,weatherlink.com 1.10,2013-06-16 06:09:00,
2013-06-16 02:24:00,60.1,57.0,30.00,SSW,212,0.0,1.0,89,0.00,,,0.00,weatherlink.com 1.10,2013-06-16 06:24:00,
2013-06-16 02:40:00,59.7,57.0,30.00,WSW,257,1.0,1.0,90,0.00,,,0.00,weatherlink.com 1.10,2013-06-16 06:40:00,
2013-06-16 02:54:00,59.7,57.0,29.99,WNW,291,3.0,4.0,92,0.00,,,0.00,weatherlink.com 1.10,2013-06-16 06:54:00,
2013-06-16 03:09:00,59.9,57.0,29.99,WSW,252,1.0,1.0,91,0.00,,,0.00,weatherlink.com 1.10,2013-06-16 07:09:00,
2013-06-16 03:24:00,59.5,57.0,29.99,WSW,250,0.0,1.0,91,0.00,,,0.00,weatherlink.com 1.10,2013-06-16 07:24:00,
2013-06-16 03:39:00,59.7,57.0,30.00,West,276,1.0,2.0,91,0.00,,,0.00,weatherlink.com 1.10,2013-06-16 07:39:00,
2013-06-16 03:54:00,59.6,57.0,30.00,WSW,240,0.0,3.0,91,0.00,,,0.00,weatherlink.com 1.10,2013-06-16 07:54:00,
2013-06-16 04:09:00,59.7,57.0,29.99,WSW,246,0.0,1.0,91,0.00,,,0.00,weatherlink.com 1.10,2013-06-16 08:09:00,
2013-06-16 04:24:00,59.5,57.0,29.99,WSW,255,0.0,2.0,91,0.00,,,0.00,weatherlink.com 1.10,2013-06-16 08:24:00,
2013-06-16 04:39:00,59.1,57.0,29.99,WSW,253,0.0,1.0,92,0.00,,,0.00,weatherlink.com 1.10,2013-06-16 08:39:00,
2013-06-16 04:54:00,59.1,57.0,29.99,West,259,0.0,1.0,92,0.00,,,0.00,weatherlink.com 1.10,2013-06-16 08:54:00,
2013-06-16 05:09:00,58.6,57.0,29.99,SSE,147,0.0,1.0,93,0.00,,,0.00,weatherlink.com 1.10,2013-06-16 09:09:00,
2013-06-16 05:24:00,58.4,56.0,29.99,SE,141,0.0,0.0,93,0.00,,,0.00,weatherlink.com 1.10,2013-06-16 09:24:00,
2013-06-16 05:39:00,58.1,56.0,30.00,SW,226,1.0,1.0,94,0.00,,,0.00,weatherlink.com 1.10,2013-06-16 09:39:00,
2013-06-16 05:54:00,57.8,56.0,30.00,SW,232,0.0,0.0,94,0.00,,,0.00,weatherlink.com 1.10,2013-06-16 09:54:00,
2013-06-16 06:09:00,57.9,56.0,30.00,SSW,204,0.0,1.0,94,0.00,,,0.00,weatherlink.com 1.10,2013-06-16 10:09:00,
2013-06-16 06:24:00,58.2,57.0,30.00,SSW,204,0.0,0.0,95,0.00,,,0.00,weatherlink.com 1.10,2013-06-16 10:24:00,
2013-06-16 06:39:00,58.5,57.0,30.00,SSE,162,0.0,1.0,94,0.00,,,0.00,weatherlink.com 1.10,2013-06-16 10:39:00,
2013-06-16 06:54:00,59.0,57.0,30.00,SE,138,0.0,1.0,94,0.00,,,0.00,weatherlink.com 1.10,2013-06-16 10:54:00,
2013-06-16 07:09:00,59.4,58.0,30.00,ESE,108,2.0,3.0,95,0.00,,,0.00,weatherlink.com 1.10,2013-06-16 11:09:00,
2013-06-16 07:24:00,61.1,60.0,30.00,SE,141,0.0,2.0,95,0.00,,,0.00,weatherlink.com 1.10,2013-06-16 11:24:00,
2013-06-16 07:39:00,63.3,60.0,30.00,WSW,248,1.0,1.0,88,0.00,,,0.00,weatherlink.com 1.10,2013-06-16 11:39:00,
2013-06-16 07:54:00,64.1,60.0,29.99,WSW,252,0.0,1.0,87,0.00,,,0.00,weatherlink.com 1.10,2013-06-16 11:54:00,
2013-06-16 08:09:00,67.7,62.0,29.99,SE,141,2.0,3.0,81,0.00,,,0.00,weatherlink.com 1.10,2013-06-16 12:09:00,
2013-06-16 08:24:00,70.0,61.0,29.99,SE,134,1.0,4.0,74,0.00,,,0.00,weatherlink.com 1.10,2013-06-16 12:24:00,
2013-06-16 08:39:00,72.2,60.0,29.99,West,262,1.0,4.0,66,0.00,,,0.00,weatherlink.com 1.10,2013-06-16 12:39:00,
2013-06-16 08:54:00,73.9,60.0,29.98,SSE,167,4.0,5.0,63,0.00,,,0.00,weatherlink.com 1.10,2013-06-16 12:54:00,
2013-06-16 09:09:00,75.7,61.0,29.98,South,177,7.0,7.0,60,0.00,,,0.00,weatherlink.com 1.10,2013-06-16 13:09:00,
2013-06-16 09:25:00,76.5,61.0,29.97,SSE,158,4.0,8.0,59,0.00,,,0.00,weatherlink.com 1.10,2013-06-16 13:25:00,
2013-06-16 09:40:00,78.2,62.0,29.97,WSW,239,7.0,13.0,57,0.00,,,0.00,weatherlink.com 1.10,2013-06-16 13:40:00,
2013-06-16 09:55:00,78.3,61.0,29.96,SW,229,13.0,13.0,56,0.00,,,0.00,weatherlink.com 1.10,2013-06-16 13:55:00,
2013-06-16 10:10:00,78.2,62.0,29.96,SSE,163,9.0,15.0,57,0.00,,,0.00,weatherlink.com 1.10,2013-06-16 14:10:00,
2013-06-16 10:25:00,77.7,62.0,29.96,SW,219,8.0,11.0,58,0.00,,,0.00,weatherlink.com 1.10,2013-06-16 14:25:00,
2013-06-16 10:40:00,78.5,63.0,29.95,West,259,7.0,13.0,59,0.00,,,0.00,weatherlink.com 1.10,2013-06-16 14:40:00,
2013-06-16 10:55:00,78.5,63.0,29.95,SW,217,8.0,14.0,59,0.00,,,0.00,weatherlink.com 1.10,2013-06-16 14:55:00,
2013-06-16 11:10:00,79.2,64.0,29.95,SSW,208,2.0,11.0,60,0.00,,,0.00,weatherlink.com 1.10,2013-06-16 15:10:00,
2013-06-16 11:25:00,80.5,63.0,29.95,East,82,5.0,11.0,56,0.00,,,0.00,weatherlink.com 1.10,2013-06-16 15:25:00,
2013-06-16 11:40:00,81.9,64.0,29.94,WSW,238,8.0,9.0,55,0.00,,,0.00,weatherlink.com 1.10,2013-06-16 15:40:00,
2013-06-16 11:55:00,82.6,64.0,29.94,South,190,1.0,10.0,53,0.00,,,0.00,weatherlink.com 1.10,2013-06-16 15:55:00,
2013-06-16 12:10:00,80.9,64.0,29.94,WSW,245,4.0,11.0,56,0.00,,,0.00,weatherlink.com 1.10,2013-06-16 16:10:00,
2013-06-16 12:25:00,81.2,64.0,29.93,West,266,2.0,6.0,56,0.00,,,0.00,weatherlink.com 1.10,2013-06-16 16:25:00,
2013-06-16 12:40:00,82.5,63.0,29.93,SW,214,3.0,10.0,52,0.00,,,0.00,weatherlink.com 1.10,2013-06-16 16:40:00,
2013-06-16 12:55:00,83.1,64.0,29.93,WSW,245,3.0,10.0,53,0.00,,,0.00,weatherlink.com 1.10,2013-06-16 16:55:00,
2013-06-16 13:10:00,82.4,64.0,29.93,SSE,155,1.0,8.0,54,0.00,,,0.00,weatherlink.com 1.10,2013-06-16 17:10:00,
2013-06-16 13:25:00,83.5,63.0,29.92,SW,214,0.0,7.0,51,0.00,,,0.00,weatherlink.com 1.10,2013-06-16 17:25:00,
2013-06-16 13:40:00,84.4,63.0,29.92,SW,235,3.0,7.0,49,0.00,,,0.00,weatherlink.com 1.10,2013-06-16 17:40:00,
2013-06-16 13:55:00,83.5,64.0,29.92,West,267,2.0,9.0,52,0.00,,,0.00,weatherlink.com 1.10,2013-06-16 17:55:00,
2013-06-16 14:10:00,83.1,65.0,29.92,South,190,0.0,7.0,54,0.00,,,0.00,weatherlink.com 1.10,2013-06-16 18:10:00,
2013-06-16 14:25:00,82.3,65.0,29.92,SSW,212,3.0,7.0,56,0.00,,,0.00,weatherlink.com 1.10,2013-06-16 18:25:00,
2013-06-16 14:40:00,82.4,65.0,29.92,SW,218,3.0,8.0,56,0.00,,,0.00,weatherlink.com 1.10,2013-06-16 18:40:00,
2013-06-16 14:55:00,82.0,66.0,29.91,WSW,253,3.0,6.0,58,0.00,,,0.00,weatherlink.com 1.10,2013-06-16 18:55:00,
2013-06-16 15:10:00,81.5,67.0,29.91,SW,231,2.0,6.0,61,0.00,,,0.00,weatherlink.com 1.10,2013-06-16 19:10:00,
2013-06-16 15:25:00,82.0,67.0,29.90,SSE,152,3.0,6.0,61,0.00,,,0.00,weatherlink.com 1.10,2013-06-16 19:25:00,
2013-06-16 15:40:00,82.5,67.0,29.90,SSW,210,5.0,9.0,59,0.00,,,0.00,weatherlink.com 1.10,2013-06-16 19:40:00,
2013-06-16 15:55:00,82.4,67.0,29.90,SW,219,3.0,8.0,60,0.00,,,0.00,weatherlink.com 1.10,2013-06-16 19:55:00,
2013-06-16 16:10:00,82.3,67.0,29.90,SW,225,6.0,8.0,60,0.00,,,0.00,weatherlink.com 1.10,2013-06-16 20:10:00,
2013-06-16 16:25:00,82.4,67.0,29.89,SW,217,4.0,10.0,60,0.00,,,0.00,weatherlink.com 1.10,2013-06-16 20:25:00,
2013-06-16 16:40:00,82.5,67.0,29.89,WSW,249,9.0,11.0,59,0.00,,,0.00,weatherlink.com 1.10,2013-06-16 20:40:00,
2013-06-16 16:55:00,82.8,65.0,29.89,WSW,257,4.0,9.0,56,0.00,,,0.00,weatherlink.com 1.10,2013-06-16 20:55:00,
2013-06-16 17:10:00,82.5,65.0,29.89,West,278,5.0,12.0,56,0.00,,,0.00,weatherlink.com 1.10,2013-06-16 21:10:00,
2013-06-16 17:25:00,82.2,65.0,29.89,SSW,205,9.0,11.0,56,0.00,,,0.00,weatherlink.com 1.10,2013-06-16 21:25:00,
2013-06-16 17:40:00,82.2,65.0,29.89,WNW,301,5.0,8.0,56,0.00,,,0.00,weatherlink.com 1.10,2013-06-16 21:40:00,
2013-06-16 17:55:00,82.1,65.0,29.89,WSW,250,3.0,7.0,56,0.00,,,0.00,weatherlink.com 1.10,2013-06-16 21:55:00,
2013-06-16 18:10:00,81.8,65.0,29.89,WSW,245,2.0,7.0,57,0.00,,,0.00,weatherlink.com 1.10,2013-06-16 22:10:00,
2013-06-16 18:25:00,82.1,66.0,29.89,SW,219,0.0,2.0,58,0.00,,,0.00,weatherlink.com 1.10,2013-06-16 22:25:00,
2013-06-16 18:40:00,82.4,66.0,29.89,WSW,245,0.0,5.0,58,0.00,,,0.00,weatherlink.com 1.10,2013-06-16 22:40:00,
2013-06-16 18:55:00,81.6,67.0,29.90,WSW,256,2.0,3.0,61,0.00,,,0.00,weatherlink.com 1.10,2013-06-16 22:55:00,
2013-06-16 19:10:00,80.4,66.0,29.91,West,274,1.0,6.0,62,0.00,,,0.00,weatherlink.com 1.10,2013-06-16 23:10:00,
2013-06-16 19:25:00,78.5,65.0,29.91,SW,218,3.0,6.0,64,0.00,,,0.00,weatherlink.com 1.10,2013-06-16 23:25:00,
2013-06-16 19:40:00,77.1,64.0,29.92,WNW,296,7.0,12.0,64,0.00,,,0.00,weatherlink.com 1.10,2013-06-16 23:40:00,
2013-06-16 19:56:00,76.0,65.0,29.92,WNW,300,5.0,8.0,68,0.00,,,0.00,weatherlink.com 1.10,2013-06-16 23:56:00,
2013-06-16 20:11:00,74.4,66.0,29.93,West,278,3.0,5.0,74,0.00,,,0.00,weatherlink.com 1.10,2013-06-17 00:11:00,
2013-06-16 20:26:00,73.5,66.0,29.93,WSW,256,1.0,4.0,77,0.00,,,0.00,weatherlink.com 1.10,2013-06-17 00:26:00,
2013-06-16 20:41:00,72.7,66.0,29.94,SW,221,4.0,6.0,80,0.00,,,0.00,weatherlink.com 1.10,2013-06-17 00:41:00,
2013-06-16 20:56:00,72.6,67.0,29.94,SW,232,4.0,8.0,81,0.00,,,0.00,weatherlink.com 1.10,2013-06-17 00:56:00,
2013-06-16 21:11:00,71.9,67.0,29.94,WSW,242,4.0,4.0,83,0.00,,,0.00,weatherlink.com 1.10,2013-06-17 01:11:00,
2013-06-16 21:26:00,71.5,67.0,29.95,SW,223,0.0,4.0,85,0.00,,,0.00,weatherlink.com 1.10,2013-06-17 01:26:00,
2013-06-16 21:41:00,71.5,67.0,29.95,WSW,240,3.0,5.0,85,0.00,,,0.00,weatherlink.com 1.10,2013-06-17 01:41:00,
2013-06-16 21:56:00,71.4,67.0,29.95,WSW,249,2.0,4.0,86,0.00,,,0.00,weatherlink.com 1.10,2013-06-17 01:56:00,
2013-06-16 22:11:00,71.0,67.0,29.95,SSW,210,0.0,3.0,87,0.00,,,0.00,weatherlink.com 1.10,2013-06-17 02:11:00,
2013-06-16 22:26:00,70.7,67.0,29.95,WSW,246,0.0,2.0,88,0.00,,,0.00,weatherlink.com 1.10,2013-06-17 02:26:00,
2013-06-16 22:41:00,70.3,67.0,29.96,East,96,1.0,1.0,89,0.00,,,0.00,weatherlink.com 1.10,2013-06-17 02:41:00,
2013-06-16 22:56:00,69.8,67.0,29.95,SE,136,3.0,5.0,91,0.00,,,0.00,weatherlink.com 1.10,2013-06-17 02:56:00,
2013-06-16 23:11:00,69.3,67.0,29.95,SSE,148,2.0,3.0,92,0.00,,,0.00,weatherlink.com 1.10,2013-06-17 03:11:00,
2013-06-16 23:26:00,69.0,67.0,29.94,SSE,148,3.0,5.0,92,0.00,,,0.00,weatherlink.com 1.10,2013-06-17 03:26:00,
2013-06-16 23:41:00,69.2,67.0,29.93,SE,146,4.0,6.0,91,0.00,,,0.00,weatherlink.com 1.10,2013-06-17 03:41:00,
2013-06-16 23:56:00,69.2,67.0,29.93,SSE,150,1.0,4.0,91,0.00,,,0.00,weatherlink.com 1.10,2013-06-17 03:56:00,